Airfield :
LOGIN :

Register | Disclaimer

   EN    FR    IT 

 










Legend :    VFR   Marginal VFR   IFR   Intensive IFR   Very Intensive IFR
Visi :
Ceiling :
>= 8 km
>= 3000ft
5 to 8 km
1000 to 3000 ft
1500m to 5 km
500 to 1000 ft
800 to 1500m
200 to 500 ft
< 800m
< 200 ft
Symbols :   Thunderstorms  Fog  Heavy snow  Heavy precipitations  Wind > 20 kt
SIGMETs :     Misc.  Thunderstorms  Icing  Turbulence  Mountain Waves  Volcanic Ashes







- Airport Elevation : 125 ft
- IATA code : MGL


EDLN - Mönchengladbach

CURRENT METAR :
  • 241220Z 20008KT CAVOK 25/07 Q1000

EXPIRED METARs :
  • 241150Z 19007KT CAVOK 25/08 Q1000
  • 241120Z 19009KT CAVOK 24/08 Q1000
  • 241050Z 19012G24KT 150V230 CAVOK 24/07 Q1000
  • 241020Z 16010KT 100V200 CAVOK 24/09 Q1000
  • 240950Z 14010KT 100V170 CAVOK 22/11 Q1000

TAF TAF EDLN
Valid from the 24 at 12:00 until the 24 at 21:00 UTC


241100Z 2412/2421 16009KT CAVOK
PROB30
TEMPO 2415/2419 19020G35KT TSRA BKN020CB
PROB40
TEMPO 2419/2421 4000 RA
No reported NOTAMs for that airfield.



MET'MAP, your aeronautical weather chart ! - Copyright ORBIFLY December 2007 - Disclaimer

ORBIFLY MET'MAP TEAM :

Programming & Development : Alexandra Zaïnal
Concept & Development : Baudouin d'Aumeries
Co-Development & Prog : Marc-Olivier Méhu
Technical & hardware support : Manuel Goepfert

Contact : metmap@orbifly.com




SOURCES & CREDITS :

   NOAA